createdAt,value
2022-12-14T00:01:08.804Z,95843.44
2022-12-14T00:03:13.479Z,95852.91
2022-12-14T00:05:19.753Z,95849.53
2022-12-14T00:07:22.370Z,95832.44
2022-12-14T00:09:25.123Z,95833.38
2022-12-14T00:11:28.596Z,95829.06
2022-12-14T00:13:31.202Z,95830.75
2022-12-14T00:15:34.526Z,95831.63
2022-12-14T00:17:37.179Z,95820.50
2022-12-14T00:19:41.132Z,95817.13
2022-12-14T00:21:43.767Z,95791.53
2022-12-14T00:23:47.525Z,95798.38
2022-12-14T00:25:50.082Z,95802.56
2022-12-14T00:27:53.079Z,95794.00
2022-12-14T00:29:55.904Z,95789.78
2022-12-14T00:31:58.446Z,95776.13
2022-12-14T00:34:01.120Z,95763.38
2022-12-14T00:36:09.015Z,95772.81
2022-12-14T00:38:11.611Z,95784.72
2022-12-14T00:40:14.278Z,95769.38
2022-12-14T00:42:16.855Z,95754.91
2022-12-14T00:44:19.480Z,95754.91
2022-12-14T00:46:22.146Z,95753.25
2022-12-14T00:48:26.582Z,95788.19
2022-12-14T00:50:29.593Z,95798.50
2022-12-14T00:52:33.571Z,95801.81
2022-12-14T00:54:36.153Z,95786.50
2022-12-14T00:56:38.758Z,95781.38
2022-12-14T00:58:41.719Z,95777.94
2022-12-14T01:00:45.186Z,95782.25
2022-12-14T01:02:47.850Z,95784.00
2022-12-14T01:04:50.455Z,95773.75
2022-12-14T01:06:54.344Z,95780.53
2022-12-14T01:08:58.296Z,95788.19
2022-12-14T01:11:00.877Z,95793.28
2022-12-14T01:13:03.468Z,95795.84
2022-12-14T01:15:06.924Z,95796.69
2022-12-14T01:17:09.638Z,95785.56
2022-12-14T01:19:14.059Z,95769.34
2022-12-14T01:21:18.826Z,95771.88
2022-12-14T01:23:21.406Z,95786.44
2022-12-14T01:25:25.373Z,95787.28
2022-12-14T01:27:28.010Z,95784.69
2022-12-14T01:29:30.579Z,95775.38
2022-12-14T01:31:35.156Z,95774.50
2022-12-14T01:33:38.209Z,95782.97
2022-12-14T01:35:40.783Z,95784.72
2022-12-14T01:37:43.405Z,95781.25
2022-12-14T01:39:46.021Z,95776.97
2022-12-14T01:41:52.918Z,95772.72
2022-12-14T01:43:57.121Z,95771.03
2022-12-14T01:46:00.076Z,95776.09
2022-12-14T01:48:04.870Z,95769.31
2022-12-14T01:50:24.091Z,95765.00
2022-12-14T01:52:31.576Z,95769.22
2022-12-14T01:54:38.042Z,95762.38
2022-12-14T01:56:43.957Z,95756.38
2022-12-14T01:58:47.929Z,95752.97
2022-12-14T02:00:55.117Z,95758.09
2022-12-14T02:03:02.111Z,95758.13
2022-12-14T02:05:09.023Z,95745.38
2022-12-14T02:07:15.876Z,95745.31
2022-12-14T02:09:22.504Z,95741.88
2022-12-14T02:11:33.007Z,95748.72
2022-12-14T02:13:39.165Z,95748.69
2022-12-14T02:15:43.530Z,95748.69
2022-12-14T02:17:48.079Z,95747.84
2022-12-14T02:19:50.754Z,95746.16
2022-12-14T02:22:18.121Z,95752.13
2022-12-14T02:24:39.194Z,95742.81
2022-12-14T02:27:09.079Z,95741.97
2022-12-14T02:30:02.838Z,95727.41
2022-12-14T02:32:17.038Z,95731.63
2022-12-14T02:34:29.588Z,95725.69
2022-12-14T02:36:38.569Z,95719.78
2022-12-14T02:38:55.398Z,95729.94
2022-12-14T02:41:06.431Z,95729.13
2022-12-14T02:43:16.942Z,95714.66
2022-12-14T02:45:28.103Z,95715.56
2022-12-14T02:47:39.080Z,95711.25
2022-12-14T02:49:54.118Z,95712.94
2022-12-14T02:52:03.941Z,95705.28
2022-12-14T02:54:14.192Z,95706.09
2022-12-14T02:56:23.805Z,95700.13
2022-12-14T02:58:30.229Z,95709.50
2022-12-14T03:00:35.687Z,95700.13
2022-12-14T03:02:41.972Z,95695.84
2022-12-14T03:04:48.326Z,95702.69
2022-12-14T03:06:58.355Z,95700.97
2022-12-14T03:09:03.534Z,95700.13
2022-12-14T03:11:07.967Z,95689.88
2022-12-14T03:13:20.012Z,95704.34
2022-12-14T03:15:27.031Z,95707.75
2022-12-14T03:17:34.004Z,95700.91
2022-12-14T03:19:41.918Z,95697.50
2022-12-14T03:21:48.454Z,95707.72
2022-12-14T03:23:53.596Z,95698.34
2022-12-14T03:26:03.979Z,95693.25
2022-12-14T03:28:12.980Z,95680.44
2022-12-14T03:30:43.923Z,95674.41
2022-12-14T03:32:49.245Z,95650.56
2022-12-14T03:34:59.552Z,95672.78
2022-12-14T03:37:10.587Z,95683.03
2022-12-14T03:39:21.453Z,95677.91
2022-12-14T03:41:32.372Z,95682.16
2022-12-14T03:43:39.118Z,95678.69
2022-12-14T03:45:48.483Z,95677.06
2022-12-14T03:48:01.109Z,95676.16
2022-12-14T03:50:11.401Z,95666.78
2022-12-14T03:52:22.335Z,95667.72
2022-12-14T03:54:34.832Z,95676.19
2022-12-14T03:56:44.011Z,95670.19
2022-12-14T03:58:59.940Z,95665.91
2022-12-14T04:01:08.442Z,95661.63
2022-12-14T04:03:19.561Z,95663.34
2022-12-14T04:05:30.097Z,95654.88
2022-12-14T04:07:39.597Z,95669.34
2022-12-14T04:09:50.432Z,95655.75
2022-12-14T04:12:15.807Z,95642.06
2022-12-14T04:14:39.548Z,95639.53
2022-12-14T04:17:03.432Z,95633.66
2022-12-14T04:19:09.297Z,95626.78
2022-12-14T04:21:18.170Z,95604.63
2022-12-14T04:23:39.895Z,95615.66
2022-12-14T04:26:06.077Z,95608.00
2022-12-14T04:28:34.188Z,95613.97
2022-12-14T04:30:39.774Z,95597.78
2022-12-14T04:32:46.134Z,95599.44
2022-12-14T04:34:52.035Z,95589.97
2022-12-14T04:36:58.610Z,95588.22
2022-12-14T04:39:06.096Z,95594.16
2022-12-14T04:41:13.718Z,95584.81
2022-12-14T04:43:20.794Z,95580.53
2022-12-14T04:45:28.487Z,95589.00
2022-12-14T04:47:39.739Z,95582.22
2022-12-14T04:49:49.761Z,95583.84
2022-12-14T04:52:04.973Z,95577.03
2022-12-14T04:54:14.254Z,95571.09
2022-12-14T04:56:21.350Z,95565.09
2022-12-14T04:58:27.281Z,95563.50
2022-12-14T05:00:33.307Z,95571.06
2022-12-14T05:02:48.288Z,95566.78
2022-12-14T05:05:00.755Z,95561.63
2022-12-14T05:07:17.529Z,95561.63
2022-12-14T05:09:24.566Z,95558.13
2022-12-14T05:11:52.598Z,95557.28
2022-12-14T05:13:53.879Z,95550.47
2022-12-14T05:15:59.263Z,95547.06
2022-12-14T05:18:03.296Z,95542.78
2022-12-14T05:20:07.427Z,95553.00
2022-12-14T05:22:11.400Z,95544.47
2022-12-14T05:24:14.170Z,95542.75
2022-12-14T05:26:16.784Z,95551.19
2022-12-14T05:28:19.364Z,95545.22
2022-12-14T05:30:21.998Z,95539.19
2022-12-14T05:32:24.900Z,95534.94
2022-12-14T05:34:27.644Z,95533.19
2022-12-14T05:36:30.259Z,95523.81
2022-12-14T05:38:34.211Z,95527.19
2022-12-14T05:40:36.889Z,95535.78
2022-12-14T05:42:44.798Z,95534.06
2022-12-14T05:44:49.410Z,95545.16
2022-12-14T05:46:52.225Z,95528.91
2022-12-14T05:48:54.818Z,95523.00
2022-12-14T05:51:04.950Z,95522.88
2022-12-14T05:53:08.220Z,95516.97
2022-12-14T05:55:12.532Z,95528.91
2022-12-14T05:57:15.135Z,95523.84
2022-12-14T05:59:18.131Z,95511.81
2022-12-14T06:01:23.360Z,95511.81
2022-12-14T06:03:26.435Z,95510.06
2022-12-14T06:05:29.260Z,95502.34
2022-12-14T06:07:31.883Z,95505.84
2022-12-14T06:09:34.464Z,95507.50
2022-12-14T06:11:41.045Z,95492.97
2022-12-14T06:13:44.710Z,95493.78
2022-12-14T06:15:47.396Z,95491.25
2022-12-14T06:17:50.306Z,95498.94
2022-12-14T06:19:52.903Z,95501.44
2022-12-14T06:21:56.694Z,95502.31
2022-12-14T06:23:59.845Z,95498.94
2022-12-14T06:26:02.630Z,95504.03
2022-12-14T06:28:07.001Z,95502.34
2022-12-14T06:30:12.048Z,95500.63
2022-12-14T06:32:14.649Z,95492.91
2022-12-14T06:34:18.216Z,95486.94
2022-12-14T06:36:23.685Z,95495.50
2022-12-14T06:38:26.270Z,95491.25
2022-12-14T06:40:29.677Z,95489.59
2022-12-14T06:42:32.270Z,95490.41
2022-12-14T06:44:36.281Z,95500.59
2022-12-14T06:46:41.465Z,95498.88
2022-12-14T06:48:44.694Z,95496.38
2022-12-14T06:50:47.451Z,95495.41
2022-12-14T06:52:50.096Z,95496.25
2022-12-14T06:54:52.666Z,95491.19
2022-12-14T06:56:55.254Z,95478.41
2022-12-14T06:58:58.237Z,95476.69
2022-12-14T07:01:04.235Z,95461.28
2022-12-14T07:03:07.042Z,95456.22
2022-12-14T07:05:10.086Z,95458.69
2022-12-14T07:07:12.691Z,95460.31
2022-12-14T07:09:15.671Z,95459.50
2022-12-14T07:11:18.473Z,95463.78
2022-12-14T07:13:21.429Z,95470.56
2022-12-14T07:15:24.061Z,95467.94
2022-12-14T07:17:28.610Z,95456.91
2022-12-14T07:19:31.209Z,95457.72
2022-12-14T07:21:34.060Z,95456.00
2022-12-14T07:23:38.381Z,95443.19
2022-12-14T07:25:41.025Z,95436.41
2022-12-14T07:27:43.683Z,95439.78
2022-12-14T07:29:46.350Z,95444.84
2022-12-14T07:31:49.929Z,95443.97
2022-12-14T07:33:55.034Z,95444.91
2022-12-14T07:36:03.607Z,95435.44
2022-12-14T07:38:06.294Z,95440.56
2022-12-14T07:40:10.617Z,95443.97
2022-12-14T07:42:13.201Z,95441.41
2022-12-14T07:44:15.933Z,95435.41
2022-12-14T07:46:21.028Z,95435.34
2022-12-14T07:48:23.675Z,95426.88
2022-12-14T07:50:28.166Z,95423.34
2022-12-14T07:52:37.135Z,95420.84
2022-12-14T07:54:40.114Z,95423.44
2022-12-14T07:56:44.765Z,95427.75
2022-12-14T07:58:47.590Z,95431.91
2022-12-14T08:00:50.198Z,95425.97
2022-12-14T08:02:56.139Z,95414.00
2022-12-14T08:04:58.948Z,95427.56
2022-12-14T08:07:03.026Z,95426.78
2022-12-14T08:09:07.261Z,95419.88
2022-12-14T08:11:10.281Z,95406.22
2022-12-14T08:13:12.921Z,95409.53
2022-12-14T08:15:15.609Z,95415.53
2022-12-14T08:17:18.268Z,95419.69
2022-12-14T08:19:20.984Z,95414.50
2022-12-14T08:21:25.100Z,95414.53
2022-12-14T08:23:29.688Z,95411.09
2022-12-14T08:25:32.589Z,95408.47
2022-12-14T08:27:35.195Z,95406.81
2022-12-14T08:29:37.774Z,95401.56
2022-12-14T08:31:40.660Z,95400.75
2022-12-14T08:33:44.243Z,95402.41
2022-12-14T08:35:46.900Z,95403.28
2022-12-14T08:37:49.496Z,95401.44
2022-12-14T08:39:53.469Z,95407.50
2022-12-14T08:41:56.542Z,95413.47
2022-12-14T08:44:01.331Z,95408.31
2022-12-14T08:46:08.903Z,95400.56
2022-12-14T08:48:11.577Z,95410.06
2022-12-14T08:50:14.283Z,95415.94
2022-12-14T08:52:17.413Z,95418.50
2022-12-14T08:54:20.025Z,95412.59
2022-12-14T08:56:25.758Z,95407.53
2022-12-14T08:58:28.332Z,95413.47
2022-12-14T09:00:31.047Z,95404.94
2022-12-14T09:02:33.833Z,95400.63
2022-12-14T09:04:36.515Z,95406.63
2022-12-14T09:06:40.321Z,95403.19
2022-12-14T09:08:43.009Z,95397.97
2022-12-14T09:10:50.404Z,95397.13
2022-12-14T09:12:54.363Z,95409.88
2022-12-14T09:14:56.924Z,95405.66
2022-12-14T09:16:59.756Z,95404.72
2022-12-14T09:19:02.373Z,95410.78
2022-12-14T09:21:05.568Z,95412.41
2022-12-14T09:23:08.185Z,95403.81
2022-12-14T09:25:10.947Z,95408.06
2022-12-14T09:27:13.538Z,95406.59
2022-12-14T09:29:19.420Z,95404.72
2022-12-14T09:31:24.160Z,95412.38
2022-12-14T09:33:27.348Z,95417.41
2022-12-14T09:35:30.287Z,95416.63
2022-12-14T09:37:32.911Z,95409.75
2022-12-14T09:39:36.724Z,95415.78
2022-12-14T09:41:57.689Z,95411.44
2022-12-14T09:44:24.701Z,95404.69
2022-12-14T09:46:43.066Z,95400.47
2022-12-14T09:48:45.743Z,95402.16
2022-12-14T09:50:50.052Z,95398.75
2022-12-14T09:52:54.832Z,95396.91
2022-12-14T09:54:59.223Z,95397.63
2022-12-14T09:57:05.474Z,95389.91
2022-12-14T09:59:15.195Z,95393.41
2022-12-14T10:01:38.888Z,95390.84
2022-12-14T10:03:56.319Z,95387.34
2022-12-14T10:06:22.519Z,95390.63
2022-12-14T10:08:29.335Z,95386.41
2022-12-14T10:10:41.587Z,95388.97
2022-12-14T10:12:53.269Z,95383.94
2022-12-14T10:15:11.085Z,95382.22
2022-12-14T10:17:27.168Z,95380.31
2022-12-14T10:19:38.612Z,95372.88
2022-12-14T10:21:48.472Z,95376.38
2022-12-14T10:23:56.721Z,95366.94
2022-12-14T10:26:07.575Z,95371.31
2022-12-14T10:28:18.103Z,95371.13
2022-12-14T10:30:22.451Z,95372.78
2022-12-14T10:32:36.204Z,95371.00
2022-12-14T10:34:41.225Z,95374.38
2022-12-14T10:36:53.964Z,95367.41
2022-12-14T10:39:00.258Z,95370.78
2022-12-14T10:41:15.431Z,95368.97
2022-12-14T10:43:35.649Z,95367.00
2022-12-14T10:45:47.130Z,95373.03
2022-12-14T10:47:57.039Z,95360.25
2022-12-14T10:50:06.817Z,95360.25
2022-12-14T10:52:16.814Z,95354.28
2022-12-14T10:54:27.780Z,95348.25
2022-12-14T10:56:33.890Z,95355.84
2022-12-14T10:58:36.581Z,95353.22
2022-12-14T11:00:39.842Z,95348.94
2022-12-14T11:02:44.880Z,95349.72
2022-12-14T11:04:56.509Z,95347.13
2022-12-14T11:07:01.213Z,95346.25
2022-12-14T11:09:21.183Z,95341.81
2022-12-14T11:11:25.901Z,95352.84
2022-12-14T11:13:28.636Z,95357.22
2022-12-14T11:15:37.697Z,95359.88
2022-12-14T11:17:42.864Z,95362.50
2022-12-14T11:19:45.695Z,95361.72
2022-12-14T11:21:51.094Z,95359.19
2022-12-14T11:23:56.035Z,95353.19
2022-12-14T11:26:00.717Z,95352.25
2022-12-14T11:28:15.189Z,95352.06
2022-12-14T11:30:17.935Z,95358.03
2022-12-14T11:32:24.983Z,95356.19
2022-12-14T11:34:34.472Z,95354.53
2022-12-14T11:36:39.000Z,95357.84
2022-12-14T11:38:42.968Z,95350.97
2022-12-14T11:40:46.672Z,95356.09
2022-12-14T11:42:50.862Z,95344.13
2022-12-14T11:44:53.997Z,95351.72
2022-12-14T11:47:03.649Z,95341.56
2022-12-14T11:49:19.281Z,95345.75
2022-12-14T11:51:21.933Z,95344.06
2022-12-14T11:53:24.552Z,95343.22
2022-12-14T11:55:29.420Z,95340.56
2022-12-14T11:57:35.938Z,95342.22
2022-12-14T11:59:42.162Z,95343.88
2022-12-14T12:01:45.416Z,95340.38
2022-12-14T12:03:51.086Z,95347.16
2022-12-14T12:05:55.788Z,95341.22
2022-12-14T12:08:00.019Z,95343.69
2022-12-14T12:10:15.930Z,95332.53
2022-12-14T12:12:22.492Z,95335.03
2022-12-14T12:14:32.526Z,95335.94
2022-12-14T12:16:37.542Z,95323.09
2022-12-14T12:18:46.613Z,95326.44
2022-12-14T12:20:54.648Z,95321.22
2022-12-14T12:23:02.473Z,95328.00
2022-12-14T12:25:29.627Z,95321.16
2022-12-14T12:27:33.869Z,95325.28
2022-12-14T12:29:42.429Z,95329.56
2022-12-14T12:31:51.667Z,95321.06
2022-12-14T12:33:59.152Z,95324.44
2022-12-14T12:36:04.415Z,95321.94
2022-12-14T12:38:13.776Z,95323.53
2022-12-14T12:40:20.543Z,95330.31
2022-12-14T12:42:27.856Z,95324.44
2022-12-14T12:44:49.572Z,95324.44
2022-12-14T12:47:31.146Z,95326.94
2022-12-14T12:49:40.532Z,95322.59
2022-12-14T12:51:47.870Z,95323.38
2022-12-14T12:53:56.019Z,95321.56
2022-12-14T12:56:06.308Z,95325.72
2022-12-14T12:58:19.759Z,95335.09
2022-12-14T13:00:25.948Z,95337.66
2022-12-14T13:02:32.544Z,95346.09
2022-12-14T13:04:39.230Z,95340.97
2022-12-14T13:06:48.900Z,95346.97
2022-12-14T13:08:58.368Z,95353.81
2022-12-14T13:13:30.167Z,95352.28
2022-12-14T13:15:39.435Z,95359.09
2022-12-14T13:17:46.789Z,95355.63
2022-12-14T13:19:54.697Z,95362.56
2022-12-14T13:22:05.153Z,95351.25
2022-12-14T13:24:17.969Z,95346.16
2022-12-14T13:26:59.004Z,95351.25
2022-12-14T13:29:08.859Z,95346.97
2022-12-14T13:31:20.934Z,95353.75
2022-12-14T13:33:51.174Z,95358.16
2022-12-14T13:36:15.456Z,95367.47
2022-12-14T13:38:36.635Z,95369.09
2022-12-14T13:41:13.553Z,95385.41
2022-12-14T13:43:35.314Z,95378.53
2022-12-14T13:45:41.210Z,95380.22
2022-12-14T13:47:49.385Z,95388.72
2022-12-14T13:50:33.838Z,95386.06
2022-12-14T13:52:38.721Z,95385.13
2022-12-14T13:54:41.493Z,95383.47
2022-12-14T13:56:44.161Z,95380.84
2022-12-14T13:58:49.462Z,95381.72
2022-12-14T14:00:58.991Z,95384.22
2022-12-14T14:03:03.141Z,95379.91
2022-12-14T14:05:38.758Z,95391.88
2022-12-14T14:07:52.032Z,95397.03
2022-12-14T14:10:01.497Z,95398.72
2022-12-14T14:12:05.545Z,95400.47
2022-12-14T14:14:16.294Z,95394.44
2022-12-14T14:16:28.707Z,95394.38
2022-12-14T14:18:38.173Z,95396.00
2022-12-14T14:20:42.597Z,95402.00
2022-12-14T14:23:23.745Z,95406.28
2022-12-14T14:25:40.447Z,95408.78
2022-12-14T14:27:50.846Z,95421.56
2022-12-14T14:29:55.092Z,95429.31
2022-12-14T14:32:00.854Z,95431.88
2022-12-14T14:34:06.067Z,95431.88
2022-12-14T14:36:10.174Z,95429.31
2022-12-14T14:38:26.000Z,95447.28
2022-12-14T14:41:14.004Z,95449.00
2022-12-14T14:43:03.961Z,95449.75
2022-12-14T14:45:09.244Z,95451.50
2022-12-14T14:47:21.975Z,95440.38
2022-12-14T14:49:31.404Z,95437.91
2022-12-14T14:51:37.122Z,95446.50
2022-12-14T14:53:40.507Z,95451.66
2022-12-14T14:55:58.198Z,95448.22
2022-12-14T14:58:06.040Z,95453.47
2022-12-14T15:00:12.302Z,95456.91
2022-12-14T15:02:31.531Z,95468.09
2022-12-14T15:04:44.906Z,95479.06
2022-12-14T15:06:51.295Z,95485.06
2022-12-14T15:08:59.744Z,95493.56
2022-12-14T15:11:05.802Z,95491.97
2022-12-14T15:13:17.856Z,95497.94
2022-12-14T15:15:24.247Z,95497.91
2022-12-14T15:17:27.639Z,95507.38
2022-12-14T15:19:36.006Z,95515.88
2022-12-14T15:21:40.227Z,95521.00
2022-12-14T15:23:49.498Z,95526.22
2022-12-14T15:26:01.454Z,95536.44
2022-12-14T15:28:08.523Z,95544.25
2022-12-14T15:30:20.524Z,95555.41
2022-12-14T15:32:25.375Z,95557.03
2022-12-14T15:34:28.712Z,95556.97
2022-12-14T15:36:35.355Z,95554.47
2022-12-14T15:38:39.419Z,95552.69
2022-12-14T15:40:42.436Z,95555.34
2022-12-14T15:42:49.261Z,95562.06
2022-12-14T15:44:52.454Z,95563.06
2022-12-14T15:46:56.200Z,95574.19
2022-12-14T15:49:00.697Z,95579.31
2022-12-14T15:51:05.373Z,95585.22
2022-12-14T15:53:14.813Z,95588.66
2022-12-14T15:55:36.121Z,95583.53
2022-12-14T15:57:39.512Z,95585.44
2022-12-14T15:59:45.491Z,95580.31
2022-12-14T16:02:06.447Z,95576.84
2022-12-14T16:04:12.844Z,95584.56
2022-12-14T16:06:17.136Z,95583.69
2022-12-14T16:08:20.127Z,95586.19
2022-12-14T16:10:26.327Z,95583.72
2022-12-14T16:12:44.443Z,95597.38
2022-12-14T16:14:54.130Z,95609.38
2022-12-14T16:16:57.400Z,95614.50
2022-12-14T16:19:20.385Z,95615.47
2022-12-14T16:21:28.938Z,95618.88
2022-12-14T16:23:33.946Z,95630.84
2022-12-14T16:25:38.633Z,95622.38
2022-12-14T16:27:45.067Z,95622.38
2022-12-14T16:30:16.375Z,95618.19
2022-12-14T16:32:20.884Z,95618.13
2022-12-14T16:34:24.773Z,95612.97
2022-12-14T16:36:27.547Z,95614.66
2022-12-14T16:38:31.148Z,95619.09
2022-12-14T16:40:36.538Z,95624.00
2022-12-14T16:42:39.155Z,95634.31
2022-12-14T16:44:43.105Z,95635.97
2022-12-14T16:47:05.219Z,95644.59
2022-12-14T16:49:23.998Z,95646.41
2022-12-14T16:51:58.224Z,95647.22
2022-12-14T16:53:55.859Z,95649.03
2022-12-14T16:56:04.116Z,95653.22
2022-12-14T16:58:07.276Z,95658.41
2022-12-14T17:00:21.643Z,95659.41
2022-12-14T17:02:31.825Z,95660.16
2022-12-14T17:04:37.599Z,95665.41
2022-12-14T17:06:46.426Z,95674.72
2022-12-14T17:08:49.611Z,95669.63
2022-12-14T17:10:52.312Z,95682.50
2022-12-14T17:12:58.789Z,95685.06
2022-12-14T17:15:01.355Z,95684.22
2022-12-14T17:17:05.559Z,95682.41
2022-12-14T17:19:08.404Z,95684.22
2022-12-14T17:21:18.499Z,95678.97
2022-12-14T17:23:21.161Z,95681.56
2022-12-14T17:25:23.820Z,95683.38
2022-12-14T17:27:26.949Z,95692.75
2022-12-14T17:29:30.989Z,95691.09
2022-12-14T17:31:33.746Z,95690.28
2022-12-14T17:33:38.233Z,95691.06
2022-12-14T17:35:41.195Z,95696.19
2022-12-14T17:37:43.917Z,95693.59
2022-12-14T17:39:46.808Z,95703.88
2022-12-14T17:41:49.669Z,95703.03
2022-12-14T17:43:56.807Z,95695.22
2022-12-14T17:46:03.172Z,95702.25
2022-12-14T17:48:06.415Z,95700.50
2022-12-14T17:50:13.664Z,95710.63
2022-12-14T17:52:19.179Z,95710.63
2022-12-14T17:54:27.354Z,95699.59
2022-12-14T17:56:31.564Z,95703.06
2022-12-14T17:58:34.196Z,95707.38
2022-12-14T18:00:54.761Z,95708.19
2022-12-14T18:02:57.562Z,95713.38
2022-12-14T18:05:00.378Z,95710.84
2022-12-14T18:07:05.065Z,95703.06
2022-12-14T18:09:08.011Z,95716.88
2022-12-14T18:11:14.538Z,95717.06
2022-12-14T18:13:17.201Z,95710.97
2022-12-14T18:15:22.158Z,95709.16
2022-12-14T18:17:24.782Z,95710.91
2022-12-14T18:19:27.374Z,95717.81
2022-12-14T18:21:30.871Z,95723.78
2022-12-14T18:23:35.368Z,95726.34
2022-12-14T18:25:41.868Z,95735.69
2022-12-14T18:27:44.483Z,95732.25
2022-12-14T18:29:47.219Z,95722.00
2022-12-14T18:31:50.336Z,95722.00
2022-12-14T18:33:53.141Z,95721.19
2022-12-14T18:35:57.500Z,95727.19
2022-12-14T18:38:00.373Z,95731.41
2022-12-14T18:40:05.792Z,95738.31
2022-12-14T18:42:10.052Z,95730.59
2022-12-14T18:44:12.758Z,95725.50
2022-12-14T18:46:16.172Z,95716.06
2022-12-14T18:48:18.940Z,95716.91
2022-12-14T18:50:22.632Z,95716.91
2022-12-14T18:52:25.283Z,95712.63
2022-12-14T18:54:28.028Z,95717.75
2022-12-14T18:56:32.016Z,95714.38
2022-12-14T18:58:34.617Z,95718.63
2022-12-14T19:00:38.021Z,95717.81
2022-12-14T19:02:41.118Z,95723.81
2022-12-14T19:04:48.504Z,95724.66
2022-12-14T19:06:51.766Z,95727.19
2022-12-14T19:08:54.471Z,95723.81
2022-12-14T19:10:57.160Z,95732.38
2022-12-14T19:13:01.210Z,95738.38
2022-12-14T19:15:03.904Z,95738.31
2022-12-14T19:17:07.411Z,95744.34
2022-12-14T19:19:10.118Z,95738.28
2022-12-14T19:21:12.828Z,95740.88
2022-12-14T19:23:17.290Z,95746.06
2022-12-14T19:25:21.709Z,95750.38
2022-12-14T19:28:00.944Z,95756.34
2022-12-14T19:29:48.463Z,95758.91
2022-12-14T19:31:54.268Z,95767.44
2022-12-14T19:33:57.599Z,95770.00
2022-12-14T19:36:00.220Z,95766.63
2022-12-14T19:38:03.080Z,95770.84
2022-12-14T19:40:11.691Z,95775.94
2022-12-14T19:42:16.258Z,95771.69
2022-12-14T19:44:18.921Z,95775.94
2022-12-14T19:46:23.900Z,95767.47
2022-12-14T19:48:26.762Z,95771.75
2022-12-14T19:50:29.364Z,95776.91
2022-12-14T19:52:32.020Z,95780.28
2022-12-14T19:54:35.791Z,95778.59
2022-12-14T19:56:38.479Z,95775.16
2022-12-14T19:58:41.637Z,95782.09
2022-12-14T20:00:44.247Z,95783.81
2022-12-14T20:02:50.072Z,95787.16
2022-12-14T20:04:52.966Z,95786.44
2022-12-14T20:06:55.609Z,95786.50
2022-12-14T20:08:59.055Z,95796.75
2022-12-14T20:11:05.942Z,95793.41
2022-12-14T20:13:08.593Z,95794.31
2022-12-14T20:15:11.798Z,95788.34
2022-12-14T20:17:14.500Z,95793.50
2022-12-14T20:19:18.483Z,95790.94
2022-12-14T20:21:23.039Z,95804.66
2022-12-14T20:23:25.743Z,95807.34
2022-12-14T20:25:28.360Z,95811.56
2022-12-14T20:27:33.796Z,95818.41
2022-12-14T20:29:40.088Z,95813.31
2022-12-14T20:31:42.941Z,95814.88
2022-12-14T20:33:45.977Z,95815.03
2022-12-14T20:35:52.474Z,95815.03
2022-12-14T20:37:55.569Z,95818.41
2022-12-14T20:40:00.414Z,95825.31
2022-12-14T20:42:03.130Z,95824.44
2022-12-14T20:44:09.269Z,95829.53
2022-12-14T20:46:26.032Z,95829.59
2022-12-14T20:48:28.764Z,95830.47
2022-12-14T20:50:31.373Z,95832.16
2022-12-14T20:52:35.349Z,95834.69
2022-12-14T20:54:37.978Z,95828.00
2022-12-14T20:56:40.965Z,95826.34
2022-12-14T20:58:47.091Z,95823.75
2022-12-14T21:00:49.878Z,95822.00
2022-12-14T21:02:52.705Z,95823.66
2022-12-14T21:04:55.454Z,95818.69
2022-12-14T21:06:58.152Z,95830.66
2022-12-14T21:09:11.579Z,95817.78
2022-12-14T21:11:28.124Z,95828.94
2022-12-14T21:13:31.176Z,95828.94
2022-12-14T21:15:35.393Z,95828.13
2022-12-14T21:17:39.127Z,95832.38
2022-12-14T21:19:42.503Z,95845.16
2022-12-14T21:21:51.666Z,95846.88
2022-12-14T21:23:56.067Z,95844.28
2022-12-14T21:26:03.552Z,95844.31
2022-12-14T21:28:06.142Z,95847.69
2022-12-14T21:30:12.611Z,95852.00
2022-12-14T21:32:15.976Z,95849.44
2022-12-14T21:34:20.957Z,95852.00
2022-12-14T21:36:23.712Z,95847.69
2022-12-14T21:38:27.868Z,95845.97
2022-12-14T21:40:44.383Z,95845.16
2022-12-14T21:42:50.492Z,95849.41
2022-12-14T21:44:55.153Z,95850.22
2022-12-14T21:46:58.300Z,95848.59
2022-12-14T21:49:00.959Z,95845.13
2022-12-14T21:51:07.311Z,95843.44
2022-12-14T21:53:09.935Z,95854.53
2022-12-14T21:55:12.577Z,95860.47
2022-12-14T21:57:33.842Z,95856.22
2022-12-14T21:59:39.380Z,95861.47
2022-12-14T22:01:42.450Z,95861.38
2022-12-14T22:03:45.184Z,95865.78
2022-12-14T22:05:52.093Z,95874.28
2022-12-14T22:07:54.663Z,95864.91
2022-12-14T22:09:57.295Z,95864.03
2022-12-14T22:11:59.883Z,95862.25
2022-12-14T22:14:03.178Z,95859.75
2022-12-14T22:16:07.884Z,95859.75
2022-12-14T22:18:13.528Z,95855.56
2022-12-14T22:20:16.279Z,95859.81
2022-12-14T22:22:19.280Z,95855.56
2022-12-14T22:24:23.349Z,95856.38
2022-12-14T22:26:26.028Z,95864.06
2022-12-14T22:28:28.655Z,95867.44
2022-12-14T22:30:31.970Z,95859.81
2022-12-14T22:32:36.132Z,95870.94
2022-12-14T22:34:38.766Z,95867.44
2022-12-14T22:36:41.379Z,95870.06
2022-12-14T22:38:44.277Z,95872.59
2022-12-14T22:40:46.909Z,95870.97
2022-12-14T22:42:49.522Z,95872.66
2022-12-14T22:44:52.168Z,95871.94
2022-12-14T22:46:54.822Z,95868.41
2022-12-14T22:48:58.850Z,95865.91
2022-12-14T22:51:02.127Z,95870.97
2022-12-14T22:53:04.786Z,95866.66
2022-12-14T22:55:07.972Z,95872.66
2022-12-14T22:57:15.925Z,95867.53
2022-12-14T22:59:22.008Z,95875.25
2022-12-14T23:01:25.344Z,95877.78
2022-12-14T23:03:28.891Z,95876.06
2022-12-14T23:05:33.361Z,95880.25
2022-12-14T23:07:36.319Z,95880.28
2022-12-14T23:09:56.419Z,95882.84
2022-12-14T23:12:21.537Z,95884.56
2022-12-14T23:14:42.123Z,95889.72
2022-12-14T23:17:02.430Z,95891.47
2022-12-14T23:19:22.768Z,95889.84
2022-12-14T23:21:47.143Z,95894.19
2022-12-14T23:24:07.469Z,95895.84
2022-12-14T23:26:27.859Z,95890.75
2022-12-14T23:28:50.543Z,95886.47
2022-12-14T23:31:11.337Z,95881.34
2022-12-14T23:33:32.091Z,95884.78
2022-12-14T23:35:52.437Z,95882.22
2022-12-14T23:38:13.841Z,95878.72
2022-12-14T23:40:34.253Z,95877.84
2022-12-14T23:42:54.637Z,95880.38
2022-12-14T23:45:15.102Z,95877.84
2022-12-14T23:47:35.081Z,95879.56
2022-12-14T23:49:55.176Z,95886.50
2022-12-14T23:52:15.312Z,95890.78
2022-12-14T23:54:36.895Z,95888.13
2022-12-14T23:56:57.052Z,95893.34
2022-12-14T23:59:20.057Z,95902.72
